Williamsville, Michigan
Current Conditions -  °F | °C
As of 6:15 PM on Wednesday 26 Nov 2014 (Local Time) from KOZW Reporting Station
Overcast Overcast  
Wind Chill: 30°   Ceiling: 4200
Heat Index: 30°   Visibility: 10mi
Dew Point: 23°   Wind: 3mph
Humidity: 74%   Direction: 350°N
Pressure: 30.09"   Gusts: NA
Location:  42.4581°N, 84.074°W
Report Text: KOZW 262315Z AUTO 35003KT 10SM OVC042 M01/M05 A3009 RMK AO2 T10111052
Loading
Personal Weather Stations






























Interactive Weather Map New forecast layout! Learn more

10-Day Weather Forecast

Advertisements
Track Severe Weather on mobile